createdAt,value
2018-08-13T05:53:36.808Z,4.10
2018-08-13T05:58:34.489Z,3.55
2018-08-13T06:03:39.822Z,3.98
2018-08-13T06:08:37.501Z,3.70
2018-08-13T06:13:35.224Z,3.35
2018-08-13T06:18:32.932Z,2.90
2018-08-13T06:23:30.653Z,2.80
2018-08-13T06:28:28.383Z,2.50
2018-08-13T06:33:26.152Z,2.30
2018-08-13T06:38:23.895Z,2.20
2018-08-13T06:43:21.676Z,2.42
2018-08-13T06:48:19.377Z,2.10
2018-08-13T06:53:17.111Z,2.20
2018-08-13T06:58:14.784Z,2.20
2018-08-13T07:03:12.484Z,2.30
2018-08-13T07:08:10.213Z,2.30
2018-08-13T07:13:08.042Z,2.37
2018-08-13T07:18:05.780Z,1.80
2018-08-13T07:23:03.612Z,1.87
2018-08-13T07:28:01.326Z,1.92
2018-08-13T11:50:44.879Z,2.30
2018-08-13T11:55:42.565Z,2.20
2018-08-13T12:00:40.317Z,2.42
2018-08-13T12:05:38.029Z,2.15
2018-08-13T12:10:35.923Z,2.50
2018-08-13T12:15:33.801Z,1.90
2018-08-13T12:20:31.571Z,2.10
2018-08-13T12:25:30.610Z,2.00
2018-08-13T12:30:28.401Z,2.37
2018-08-13T12:35:26.221Z,2.02
2018-08-13T12:40:24.124Z,2.00
2018-08-13T12:45:22.013Z,2.05
2018-08-13T12:50:20.882Z,2.22
2018-08-13T12:55:18.865Z,2.45
2018-08-13T13:00:18.205Z,2.20
2018-08-13T13:05:17.121Z,2.30
2018-08-13T13:10:16.895Z,2.17
2018-08-13T13:15:18.078Z,2.20
2018-08-13T13:20:18.814Z,3.00
2018-08-13T13:25:16.990Z,2.30
2018-08-13T13:30:16.018Z,2.22
2018-08-13T13:35:16.209Z,2.33
2018-08-13T13:40:15.684Z,2.70
2018-08-13T13:45:15.421Z,2.42
2018-08-13T13:50:15.018Z,2.40
2018-08-13T13:55:13.325Z,2.45
2018-08-13T14:00:17.010Z,2.33
2018-08-13T14:05:14.992Z,2.37
2018-08-13T14:10:15.022Z,2.40
2018-08-13T14:15:14.477Z,2.33
2018-08-13T14:20:12.216Z,1.95
2018-08-13T14:25:11.970Z,2.15
2018-08-13T14:30:15.859Z,2.00
2018-08-13T14:35:14.221Z,1.87
2018-08-13T14:40:12.916Z,1.90
2018-08-13T14:45:12.549Z,1.90
2018-08-13T14:50:12.316Z,2.00
2018-08-13T14:55:11.050Z,2.12
2018-08-13T15:00:23.849Z,2.10
2018-08-13T15:05:22.164Z,2.65
2018-08-13T15:10:21.316Z,2.60
2018-08-13T15:15:19.122Z,2.40
2018-08-13T15:20:24.189Z,2.60
2018-08-13T15:25:21.960Z,2.70
2018-08-13T15:30:24.779Z,2.50
2018-08-13T15:35:22.652Z,2.35
2018-08-13T15:40:20.442Z,2.25
2018-08-13T15:45:21.828Z,2.72
2018-08-13T15:50:20.554Z,2.40
2018-08-13T15:55:18.478Z,2.20
2018-08-13T16:00:20.359Z,2.10
2018-08-13T16:05:18.362Z,1.90
2018-08-13T16:10:16.905Z,1.72
2018-08-13T16:15:14.849Z,1.72
2018-08-13T16:20:15.668Z,1.80
2018-08-13T16:25:13.555Z,1.70
2018-08-13T16:30:28.967Z,2.10
2018-08-13T16:35:26.832Z,2.55
2018-08-13T16:40:24.668Z,2.37
2018-08-13T16:45:23.170Z,2.25
2018-08-13T16:50:23.846Z,2.42
2018-08-13T16:55:21.665Z,2.15
2018-08-13T17:00:23.618Z,2.45
2018-08-13T17:05:23.762Z,2.60
2018-08-13T17:10:24.549Z,2.20
2018-08-13T17:15:23.179Z,2.22
2018-08-13T17:20:27.642Z,2.47
2018-08-13T17:25:25.712Z,2.83
2018-08-13T17:30:24.685Z,2.67
2018-08-13T17:35:29.585Z,2.60
2018-08-13T17:40:38.538Z,2.20
2018-08-13T17:45:41.361Z,2.42
2018-08-13T17:50:46.302Z,2.87
2018-08-13T17:55:48.766Z,2.35
2018-08-13T18:00:52.351Z,2.15
2018-08-13T18:05:57.494Z,2.50
2018-08-13T18:16:46.536Z,2.87
2018-08-13T18:21:44.847Z,2.40
2018-08-13T18:26:43.114Z,2.40
2018-08-13T18:31:42.414Z,2.10
2018-08-13T18:36:42.826Z,2.10
2018-08-13T18:41:41.010Z,2.62
2018-08-13T18:46:39.170Z,1.90
2018-08-13T18:51:37.298Z,2.30
2018-08-13T18:56:35.505Z,2.00
2018-08-13T19:01:33.828Z,2.27
2018-08-13T19:06:32.068Z,1.80
2018-08-13T19:11:30.077Z,1.90
2018-08-13T19:16:28.148Z,2.10
2018-08-13T19:21:26.208Z,2.25
2018-08-13T19:26:24.679Z,2.02
2018-08-13T19:31:22.896Z,2.20
2018-08-13T19:36:21.942Z,2.22
2018-08-13T19:41:22.025Z,2.00
2018-08-13T19:46:21.672Z,1.92
2018-08-13T19:51:20.975Z,2.40
2018-08-13T19:56:20.048Z,2.50
2018-08-13T20:01:18.904Z,2.75
2018-08-13T20:06:17.132Z,3.27
2018-08-13T20:11:15.520Z,2.37
2018-08-13T20:16:13.809Z,2.77
